Time;durP1;ratioP1;P1;durP2;ratioP2;P2;SDS_P1;SDS_P2;PMS_P1;PMS_P2;Temp;Humidity;BMP_temperature;BMP_pressure;BME280_temperature;BME280_humidity;BME280_pressure;Samples;Min_cycle;Max_cycle;Signal;HPM_P1;HPM_P2
2022/06/20 00:00:58;;;;;;;1.40;1.40;;;17.90;76.80;;;;;;5048591;28;20971;-73
2022/06/20 00:03:31;;;;;;;2.03;1.98;;;17.90;77.00;;;;;;5047063;28;20187;-73
2022/06/20 00:05:58;;;;;;;1.65;1.13;;;17.90;76.90;;;;;;5046884;28;20184;-73
2022/06/20 00:08:24;;;;;;;1.80;1.70;;;17.80;76.80;;;;;;5047606;28;20219;-73
2022/06/20 00:10:50;;;;;;;1.85;1.70;;;17.80;76.50;;;;;;5046643;28;20278;-73
2022/06/20 00:13:22;;;;;;;1.50;1.50;;;17.80;76.70;;;;;;5043179;28;20187;-73
2022/06/20 00:15:50;;;;;;;1.80;1.70;;;17.70;76.70;;;;;;5049956;28;20264;-73
2022/06/20 00:18:17;;;;;;;1.80;1.60;;;17.70;76.70;;;;;;5048928;28;20775;-72
2022/06/20 00:20:43;;;;;;;1.77;1.77;;;17.70;76.80;;;;;;5046398;28;20205;-72
2022/06/20 00:23:09;;;;;;;1.63;1.63;;;17.70;76.80;;;;;;5043335;28;20675;-73
2022/06/20 00:25:36;;;;;;;2.03;1.98;;;17.70;77.30;;;;;;5047623;28;20183;-73
2022/06/20 00:28:03;;;;;;;1.77;1.77;;;17.60;76.80;;;;;;5047745;28;20183;-74
2022/06/20 00:30:28;;;;;;;1.80;1.80;;;17.60;77.00;;;;;;5053723;28;20234;-73
2022/06/20 00:32:54;;;;;;;1.67;1.60;;;17.60;77.60;;;;;;5054620;28;20222;-73
2022/06/20 00:35:20;;;;;;;5.72;1.80;;;17.60;77.80;;;;;;5052712;28;20234;-73
2022/06/20 00:37:46;;;;;;;1.60;1.60;;;17.50;77.60;;;;;;5049395;28;20253;-73
2022/06/20 00:40:37;;;;;;;1.52;1.25;;;17.50;77.60;;;;;;5053765;28;20182;-73
2022/06/20 00:43:06;;;;;;;1.20;1.20;;;17.50;77.40;;;;;;5051535;28;20195;-73
2022/06/20 00:45:43;;;;;;;1.48;1.48;;;17.40;78.20;;;;;;5050104;28;20222;-73
2022/06/20 00:48:21;;;;;;;1.73;1.63;;;17.30;78.70;;;;;;5051394;28;20190;-73
2022/06/20 00:50:50;;;;;;;1.70;1.67;;;17.30;78.20;;;;;;5047050;28;20179;-73
2022/06/20 00:53:32;;;;;;;1.60;1.60;;;17.20;79.30;;;;;;5046638;28;20191;-73
2022/06/20 00:56:03;;;;;;;2.22;2.13;;;17.20;79.00;;;;;;5054206;28;20214;-73
2022/06/20 00:58:40;;;;;;;1.60;1.60;;;17.10;79.10;;;;;;5051248;28;20215;-73
2022/06/20 01:01:12;;;;;;;1.90;1.80;;;17.10;79.10;;;;;;5053039;28;20203;-73
2022/06/20 01:03:44;;;;;;;1.60;1.55;;;17.00;78.50;;;;;;5047630;28;20179;-73
2022/06/20 01:06:13;;;;;;;1.85;1.77;;;17.00;79.00;;;;;;5045634;28;20184;-73
2022/06/20 01:08:57;;;;;;;1.33;1.33;;;17.00;78.50;;;;;;5049262;28;20186;-73
2022/06/20 01:11:26;;;;;;;2.63;1.67;;;16.90;79.00;;;;;;5053336;28;20183;-74
2022/06/20 01:13:53;;;;;;;1.17;1.17;;;16.90;78.50;;;;;;5048721;28;20223;-74
2022/06/20 01:16:25;;;;;;;1.60;1.60;;;16.90;79.60;;;;;;5052754;28;20684;-73
2022/06/20 01:18:52;;;;;;;1.30;1.30;;;16.80;78.60;;;;;;5047394;28;20179;-73
2022/06/20 01:21:21;;;;;;;1.20;1.20;;;16.80;79.30;;;;;;5053813;28;20616;-73
2022/06/20 01:24:05;;;;;;;1.25;1.25;;;16.80;79.00;;;;;;5049976;28;20233;-74
2022/06/20 01:26:39;;;;;;;1.40;1.30;;;16.80;78.60;;;;;;5053457;28;20596;-73
2022/06/20 01:29:08;;;;;;;1.08;1.08;;;16.70;79.10;;;;;;5055029;28;20179;-73
2022/06/20 01:31:40;;;;;;;1.60;0.95;;;16.70;79.10;;;;;;5051434;28;20195;-74
2022/06/20 01:34:06;;;;;;;1.30;1.30;;;16.70;80.10;;;;;;5044395;28;20188;-73
2022/06/20 01:39:22;;;;;;;2.00;1.90;;;16.60;80.90;;;;;;5052347;28;20191;-73
2022/06/20 01:44:38;;;;;;;1.80;1.75;;;16.60;80.80;;;;;;5049095;28;20650;-73
2022/06/20 01:47:04;;;;;;;1.55;1.55;;;16.50;80.20;;;;;;5048047;28;20187;-73
2022/06/20 01:49:32;;;;;;;1.52;1.52;;;16.50;80.10;;;;;;5050739;28;20217;-73
2022/06/20 01:52:09;;;;;;;1.30;1.30;;;16.50;80.50;;;;;;5054873;28;20190;-73
2022/06/20 01:54:51;;;;;;;1.80;1.70;;;16.50;80.60;;;;;;5047451;28;20195;-73
2022/06/20 01:57:17;;;;;;;1.77;1.42;;;16.40;80.20;;;;;;5047677;28;20187;-73
2022/06/20 02:00:03;;;;;;;1.75;1.65;;;16.40;81.20;;;;;;5050376;28;20175;-72
2022/06/20 02:02:33;;;;;;;4.53;1.45;;;16.40;80.80;;;;;;5053909;28;20265;-73
2022/06/20 02:05:03;;;;;;;1.17;1.17;;;16.40;81.20;;;;;;5050782;28;20183;-73
2022/06/20 02:07:30;;;;;;;2.70;1.45;;;16.30;80.80;;;;;;5053913;28;20179;-73
2022/06/20 02:09:56;;;;;;;1.55;1.30;;;16.30;81.00;;;;;;5054036;28;20708;-72
2022/06/20 02:12:22;;;;;;;1.70;1.23;;;16.30;80.70;;;;;;5047756;28;20283;-73
2022/06/20 02:14:56;;;;;;;3.13;1.20;;;16.30;80.70;;;;;;5048112;28;20808;-73
2022/06/20 02:17:44;;;;;;;1.05;1.05;;;16.30;80.50;;;;;;5045461;28;20705;-73
2022/06/20 02:20:15;;;;;;;1.35;1.35;;;16.20;80.50;;;;;;5049043;28;20621;-73
2022/06/20 02:22:41;;;;;;;2.25;1.30;;;16.20;80.90;;;;;;5052081;28;20325;-72
2022/06/20 02:25:13;;;;;;;1.10;1.10;;;16.20;80.40;;;;;;5052716;28;20226;-72
2022/06/20 02:27:43;;;;;;;1.30;1.30;;;16.20;81.10;;;;;;5049733;28;20182;-73
2022/06/20 02:30:10;;;;;;;0.80;0.80;;;16.10;81.30;;;;;;5045775;28;20665;-72
2022/06/20 02:32:42;;;;;;;1.40;1.40;;;16.10;81.30;;;;;;5050131;28;20167;-73
2022/06/20 02:35:12;;;;;;;1.42;1.13;;;16.10;81.20;;;;;;5053348;28;20298;-73
2022/06/20 02:37:38;;;;;;;1.20;1.20;;;16.10;81.50;;;;;;5053644;28;20188;-73
2022/06/20 02:40:09;;;;;;;0.85;0.85;;;16.00;81.30;;;;;;5050479;28;20248;-73
2022/06/20 02:42:50;;;;;;;1.10;1.10;;;16.00;81.30;;;;;;5050913;28;20187;-73
2022/06/20 02:45:17;;;;;;;1.10;1.10;;;16.00;81.40;;;;;;5052741;28;20871;-74
2022/06/20 02:47:47;;;;;;;1.13;1.13;;;16.00;81.40;;;;;;5055249;28;20240;-74
2022/06/20 02:50:16;;;;;;;2.00;1.13;;;15.90;81.20;;;;;;5054223;28;20182;-73
2022/06/20 02:52:52;;;;;;;1.27;1.20;;;15.90;81.70;;;;;;5051790;28;20622;-74
2022/06/20 02:55:18;;;;;;;4.00;1.40;;;15.90;81.70;;;;;;5051370;28;20481;-73
2022/06/20 02:57:52;;;;;;;1.23;1.10;;;15.90;82.30;;;;;;5052935;28;20706;-73
2022/06/20 03:00:25;;;;;;;1.50;1.10;;;15.80;81.80;;;;;;5051465;28;20648;-73
2022/06/20 03:02:55;;;;;;;1.35;1.05;;;15.80;81.90;;;;;;5050645;28;20879;-74
2022/06/20 03:05:21;;;;;;;0.80;0.80;;;15.80;81.90;;;;;;5053119;28;20214;-73
2022/06/20 03:07:49;;;;;;;1.27;1.25;;;15.80;82.20;;;;;;5052132;28;20182;-73
2022/06/20 03:10:28;;;;;;;1.10;1.10;;;15.80;82.40;;;;;;5049886;28;20190;-73
2022/06/20 03:12:56;;;;;;;1.17;1.17;;;15.70;81.90;;;;;;5049869;28;20190;-73
2022/06/20 03:15:23;;;;;;;2.17;0.80;;;15.70;82.10;;;;;;5055522;28;20243;-73
2022/06/20 03:17:52;;;;;;;1.27;1.27;;;15.70;82.30;;;;;;5054328;28;20784;-73
2022/06/20 03:20:20;;;;;;;1.15;1.15;;;15.70;82.30;;;;;;5058230;28;20179;-73
2022/06/20 03:23:28;;;;;;;1.10;1.10;;;15.70;82.20;;;;;;5056676;28;20207;-73
2022/06/20 03:25:56;;;;;;;1.10;1.10;;;15.70;82.10;;;;;;5059153;28;20246;-73
2022/06/20 03:28:23;;;;;;;1.00;1.00;;;15.70;82.10;;;;;;5064835;28;20946;-74
2022/06/20 03:30:51;;;;;;;2.58;1.20;;;15.70;82.10;;;;;;5059796;28;20202;-73
2022/06/20 03:33:17;;;;;;;1.40;1.30;;;15.70;81.80;;;;;;5062722;28;20188;-73
2022/06/20 03:35:50;;;;;;;1.00;1.00;;;15.70;81.90;;;;;;5062883;28;20632;-74
2022/06/20 03:38:17;;;;;;;1.08;1.08;;;15.70;82.30;;;;;;5063399;28;20191;-73
2022/06/20 03:40:43;;;;;;;1.58;1.23;;;15.70;82.00;;;;;;5062236;28;20189;-73
2022/06/20 03:43:12;;;;;;;1.42;1.33;;;15.70;82.10;;;;;;5065609;28;20622;-73
2022/06/20 03:45:42;;;;;;;1.40;1.30;;;15.70;82.20;;;;;;5059684;28;20175;-73
2022/06/20 03:48:15;;;;;;;1.58;1.50;;;15.80;82.50;;;;;;5056289;28;20611;-73
2022/06/20 03:50:47;;;;;;;4.68;1.40;;;15.80;82.30;;;;;;5061239;28;20686;-74
2022/06/20 03:53:17;;;;;;;1.60;1.35;;;15.80;82.30;;;;;;5065546;28;20757;-74
2022/06/20 03:56:14;;;;;;;1.52;1.38;;;15.80;82.20;;;;;;5061411;28;20320;-74
2022/06/20 03:58:57;;;;;;;2.47;1.33;;;15.80;82.00;;;;;;4979933;28;20784;-74
2022/06/20 04:01:34;;;;;;;3.00;1.30;;;15.80;82.00;;;;;;4980752;28;20189;-74
2022/06/20 04:04:26;;;;;;;1.15;1.15;;;15.80;81.70;;;;;;4990802;28;20280;-73
2022/06/20 04:06:59;;;;;;;1.23;1.17;;;15.80;81.80;;;;;;4986242;28;20217;-73
2022/06/20 04:12:26;;;;;;;1.10;1.10;;;15.90;82.00;;;;;;4986414;28;20209;-73
2022/06/20 04:15:03;;;;;;;2.75;1.42;;;15.90;82.30;;;;;;4988600;28;20224;-73
2022/06/20 04:20:39;;;;;;;1.35;1.35;;;16.00;82.70;;;;;;4987571;28;20215;-73
2022/06/20 04:23:12;;;;;;;1.35;1.35;;;16.00;81.70;;;;;;4983469;28;20193;-74
2022/06/20 04:25:47;;;;;;;1.58;1.58;;;16.00;82.00;;;;;;4987687;28;20661;-74
2022/06/20 04:28:26;;;;;;;1.67;1.60;;;16.00;82.00;;;;;;4985014;28;20229;-73
2022/06/20 04:31:02;;;;;;;1.63;1.52;;;16.00;82.50;;;;;;4986637;28;20344;-74
2022/06/20 04:33:31;;;;;;;1.70;1.67;;;16.00;82.00;;;;;;4983012;28;20190;-73
2022/06/20 04:36:22;;;;;;;1.42;1.33;;;16.10;82.00;;;;;;5031951;28;20223;-73
2022/06/20 04:38:55;;;;;;;2.25;1.92;;;16.10;81.40;;;;;;5050584;28;20363;-73
2022/06/20 04:41:45;;;;;;;1.63;1.63;;;16.10;81.40;;;;;;5049957;28;20179;-74
2022/06/20 04:44:43;;;;;;;1.70;1.70;;;16.10;81.60;;;;;;5001712;28;20201;-74
2022/06/20 04:47:37;;;;;;;1.42;1.40;;;16.20;81.40;;;;;;5009402;28;20189;-75
2022/06/20 04:50:05;;;;;;;1.90;1.80;;;16.20;81.70;;;;;;5004677;28;20502;-74
2022/06/20 04:52:31;;;;;;;1.65;1.65;;;16.30;81.90;;;;;;5006703;28;20338;-73
2022/06/20 04:54:58;;;;;;;2.17;1.98;;;16.30;81.90;;;;;;5004621;28;20314;-73
2022/06/20 04:57:27;;;;;;;2.00;1.80;;;16.40;81.70;;;;;;5001388;28;20212;-72
2022/06/20 04:59:57;;;;;;;1.73;1.63;;;16.40;81.90;;;;;;5006382;28;20607;-72
2022/06/20 05:02:25;;;;;;;2.95;1.50;;;16.50;81.90;;;;;;5009157;28;20199;-73
2022/06/20 05:04:54;;;;;;;1.85;1.65;;;16.50;81.70;;;;;;5007811;28;20203;-75
2022/06/20 05:07:31;;;;;;;4.03;2.33;;;16.50;82.00;;;;;;5007693;28;20189;-75
2022/06/20 05:10:04;;;;;;;1.67;1.58;;;16.60;81.90;;;;;;5007993;28;20196;-76
2022/06/20 05:12:56;;;;;;;2.75;1.92;;;16.60;81.40;;;;;;5005021;28;20280;-74
2022/06/20 05:15:26;;;;;;;2.42;2.33;;;16.70;81.60;;;;;;4988069;28;20882;-75
2022/06/20 05:17:54;;;;;;;3.72;2.47;;;16.80;81.90;;;;;;4987056;28;20201;-75
2022/06/20 05:20:32;;;;;;;2.53;2.42;;;16.80;81.80;;;;;;4971106;28;20189;-75
2022/06/20 05:23:09;;;;;;;2.60;2.45;;;16.80;81.00;;;;;;5002135;28;20286;-76
2022/06/20 05:25:37;;;;;;;2.90;1.95;;;16.90;81.00;;;;;;4999699;28;20579;-76
2022/06/20 05:28:10;;;;;;;2.03;1.92;;;16.90;81.40;;;;;;5005929;28;20676;-74
2022/06/20 05:30:39;;;;;;;2.90;2.80;;;17.00;81.10;;;;;;5001466;28;20177;-75
2022/06/20 05:33:15;;;;;;;2.22;2.15;;;17.10;81.60;;;;;;5003843;28;20208;-75
2022/06/20 05:35:53;;;;;;;2.58;2.40;;;17.20;81.70;;;;;;4997702;28;20220;-77
2022/06/20 05:38:34;;;;;;;2.65;2.55;;;17.30;81.10;;;;;;4999435;28;20186;-76
2022/06/20 05:41:01;;;;;;;3.67;2.25;;;17.30;80.90;;;;;;5006931;28;20189;-75
2022/06/20 05:43:30;;;;;;;2.58;2.38;;;17.30;81.70;;;;;;4987672;28;20359;-76
2022/06/20 05:46:05;;;;;;;2.42;2.22;;;17.40;81.20;;;;;;4999382;28;20212;-75
2022/06/20 05:48:39;;;;;;;2.10;2.10;;;17.40;80.70;;;;;;5005322;28;20210;-75
2022/06/20 05:51:08;;;;;;;2.47;2.38;;;17.50;80.90;;;;;;5005052;28;20565;-74
2022/06/20 05:53:39;;;;;;;2.47;2.38;;;17.50;81.10;;;;;;5046831;28;20191;-76
2022/06/20 05:56:15;;;;;;;2.53;2.33;;;17.60;80.40;;;;;;5047863;28;20218;-77
2022/06/20 05:58:44;;;;;;;2.60;2.50;;;17.70;80.00;;;;;;5047522;28;20634;-76
2022/06/20 06:01:17;;;;;;;2.53;2.05;;;17.70;80.40;;;;;;5049099;28;20588;-76
2022/06/20 06:04:02;;;;;;;2.38;2.28;;;17.70;79.90;;;;;;5047066;28;20638;-77
2022/06/20 06:06:51;;;;;;;2.60;2.50;;;17.80;79.20;;;;;;5049868;28;20667;-76
2022/06/20 06:09:23;;;;;;;2.08;2.05;;;17.80;79.40;;;;;;5047406;28;20333;-78
2022/06/20 06:12:03;;;;;;;2.50;2.10;;;17.80;79.50;;;;;;5049531;28;20636;-76
2022/06/20 06:14:48;;;;;;;2.08;2.00;;;17.90;79.00;;;;;;5028805;28;20214;-76
2022/06/20 06:17:33;;;;;;;1.73;1.73;;;17.90;79.30;;;;;;5049138;28;20788;-76
2022/06/20 06:20:02;;;;;;;2.55;2.45;;;18.00;79.60;;;;;;5060783;28;20196;-76
2022/06/20 06:22:39;;;;;;;2.90;2.60;;;18.10;79.70;;;;;;5031963;28;20186;-77
2022/06/20 06:25:28;;;;;;;1.83;1.65;;;18.10;78.80;;;;;;5046034;28;20531;-76
2022/06/20 06:27:57;;;;;;;2.60;2.08;;;18.20;78.90;;;;;;5048420;28;21091;-76
2022/06/20 06:30:34;;;;;;;2.35;2.15;;;18.20;79.20;;;;;;5046859;28;20569;-77
2022/06/20 06:33:11;;;;;;;1.90;1.80;;;18.30;79.00;;;;;;5047679;28;20336;-76
2022/06/20 06:35:44;;;;;;;2.17;2.13;;;18.40;78.90;;;;;;5046260;28;20312;-75
2022/06/20 06:38:26;;;;;;;3.22;2.22;;;18.40;78.90;;;;;;5046464;28;20217;-75
2022/06/20 06:40:54;;;;;;;2.15;2.05;;;18.50;78.70;;;;;;5044053;28;20196;-75
2022/06/20 06:43:38;;;;;;;2.35;2.25;;;18.60;78.90;;;;;;5045606;28;20183;-75
2022/06/20 06:46:07;;;;;;;1.85;1.75;;;18.60;78.80;;;;;;5040447;28;20243;-75
2022/06/20 06:48:54;;;;;;;2.22;2.13;;;18.70;78.60;;;;;;5045524;28;20641;-75
2022/06/20 06:51:33;;;;;;;1.88;1.77;;;18.80;78.20;;;;;;5047697;28;20175;-75
2022/06/20 06:54:08;;;;;;;2.33;2.13;;;18.90;78.10;;;;;;5046267;28;20179;-76
2022/06/20 06:56:40;;;;;;;3.13;2.63;;;19.00;78.20;;;;;;5048100;28;20660;-75
2022/06/20 06:59:21;;;;;;;1.98;1.92;;;19.10;78.50;;;;;;5048379;28;20278;-74
2022/06/20 07:01:51;;;;;;;5.05;2.25;;;19.10;78.10;;;;;;5044429;28;20600;-75
2022/06/20 07:04:26;;;;;;;2.17;1.98;;;19.20;78.50;;;;;;5045451;28;20598;-75
2022/06/20 07:07:06;;;;;;;2.65;2.55;;;19.30;78.10;;;;;;5053622;28;20525;-75
2022/06/20 07:09:40;;;;;;;1.95;1.95;;;19.40;77.90;;;;;;5044594;28;20617;-75
2022/06/20 07:12:23;;;;;;;3.13;2.00;;;19.50;77.90;;;;;;5045247;28;20199;-75
2022/06/20 07:15:12;;;;;;;2.38;2.20;;;19.50;77.60;;;;;;5049992;28;20227;-75
2022/06/20 07:17:56;;;;;;;4.47;2.17;;;19.60;77.40;;;;;;5049718;28;20191;-74
2022/06/20 07:20:27;;;;;;;2.33;2.22;;;19.70;77.70;;;;;;5045497;28;20210;-75
2022/06/20 07:22:53;;;;;;;2.25;2.13;;;19.80;77.50;;;;;;5050047;28;20191;-75
2022/06/20 07:25:35;;;;;;;1.77;1.67;;;19.80;77.20;;;;;;5049067;28;20195;-75
2022/06/20 07:28:18;;;;;;;2.28;2.17;;;19.90;77.10;;;;;;5048009;28;20183;-75
2022/06/20 07:30:50;;;;;;;2.20;2.00;;;20.00;76.80;;;;;;5042188;28;20179;-75
2022/06/20 07:33:42;;;;;;;3.80;2.25;;;20.10;76.80;;;;;;5051567;28;20187;-75
2022/06/20 07:36:11;;;;;;;2.00;1.90;;;20.20;76.50;;;;;;5048340;28;20211;-75
2022/06/20 07:39:11;;;;;;;1.75;1.65;;;20.30;76.60;;;;;;5058066;28;20187;-75
2022/06/20 07:41:45;;;;;;;2.25;2.10;;;20.30;75.60;;;;;;5008315;28;20193;-74
2022/06/20 07:44:19;;;;;;;1.85;1.75;;;20.50;75.50;;;;;;5000694;28;21261;-74
2022/06/20 07:46:51;;;;;;;1.70;1.70;;;20.50;74.40;;;;;;5006854;28;20204;-75
2022/06/20 07:49:29;;;;;;;2.15;1.55;;;20.60;74.60;;;;;;5006592;28;20717;-75
2022/06/20 07:51:59;;;;;;;1.88;1.77;;;20.60;75.00;;;;;;5003462;28;20214;-76
2022/06/20 07:54:43;;;;;;;1.40;1.40;;;20.70;75.10;;;;;;5008820;28;20236;-76
2022/06/20 07:57:16;;;;;;;1.55;1.55;;;20.80;74.40;;;;;;5004104;28;20604;-74
2022/06/20 07:59:45;;;;;;;1.27;1.27;;;20.90;74.40;;;;;;5006781;28;20264;-74
2022/06/20 08:02:13;;;;;;;1.88;1.77;;;20.90;74.60;;;;;;5015548;28;20238;-74
2022/06/20 08:04:39;;;;;;;1.48;1.45;;;21.00;73.90;;;;;;5008892;28;20756;-75
2022/06/20 08:07:16;;;;;;;1.77;1.75;;;21.10;74.20;;;;;;5009167;28;20189;-74
2022/06/20 08:09:48;;;;;;;1.38;1.38;;;21.20;74.10;;;;;;5013011;28;20188;-73
2022/06/20 08:12:47;;;;;;;1.42;1.42;;;21.20;74.10;;;;;;5015097;28;20604;-74
2022/06/20 08:15:25;;;;;;;1.55;1.45;;;21.30;73.90;;;;;;4969855;28;20229;-74
2022/06/20 08:17:52;;;;;;;1.52;1.52;;;21.40;72.40;;;;;;4973606;28;20611;-74
2022/06/20 08:20:19;;;;;;;1.33;1.33;;;21.40;72.80;;;;;;5003312;28;20210;-74
2022/06/20 08:23:02;;;;;;;1.45;1.35;;;21.50;72.90;;;;;;5003309;28;20196;-75
2022/06/20 08:25:36;;;;;;;1.77;1.75;;;21.60;72.60;;;;;;5005388;28;20185;-74
2022/06/20 08:28:13;;;;;;;1.33;1.33;;;21.60;72.10;;;;;;5008192;28;20767;-75
2022/06/20 08:30:52;;;;;;;1.50;1.50;;;21.70;72.10;;;;;;5008321;28;20177;-74
2022/06/20 08:33:42;;;;;;;1.42;1.42;;;21.80;72.10;;;;;;4991238;28;20203;-74
2022/06/20 08:36:23;;;;;;;1.58;1.50;;;21.90;71.80;;;;;;5011328;28;20217;-74
2022/06/20 08:38:54;;;;;;;1.30;1.20;;;21.90;71.70;;;;;;5007662;28;20204;-74
2022/06/20 08:41:43;;;;;;;1.13;1.13;;;22.00;70.80;;;;;;5008326;28;20195;-74
2022/06/20 08:44:34;;;;;;;1.13;1.13;;;22.10;71.00;;;;;;5009814;28;20733;-74
2022/06/20 08:47:12;;;;;;;1.20;1.20;;;22.10;70.90;;;;;;5006454;28;20184;-75
2022/06/20 08:50:14;;;;;;;1.02;1.02;;;22.20;69.90;;;;;;5008005;28;20744;-75
2022/06/20 08:52:52;;;;;;;0.98;0.98;;;22.30;69.50;;;;;;5047881;28;20187;-76
2022/06/20 08:55:23;;;;;;;0.90;0.90;;;22.40;69.70;;;;;;5048304;28;20262;-75
2022/06/20 08:58:29;;;;;;;2.35;0.98;;;22.50;69.60;;;;;;5047565;28;20187;-75
2022/06/20 09:01:19;;;;;;;1.00;1.00;;;22.60;69.10;;;;;;5002841;28;20200;-76
2022/06/20 09:04:06;;;;;;;0.80;0.80;;;22.70;68.20;;;;;;5004551;28;20882;-74
2022/06/20 09:07:09;;;;;;;0.75;0.70;;;22.80;69.30;;;;;;5002033;28;20192;-73
2022/06/20 09:10:12;;;;;;;0.70;0.70;;;22.90;68.30;;;;;;5006250;28;20737;-74
2022/06/20 09:12:48;;;;;;;1.25;0.70;;;23.10;66.40;;;;;;5005804;28;20590;-74
2022/06/20 09:15:42;;;;;;;1.88;0.90;;;23.20;66.60;;;;;;5008721;28;20650;-74
2022/06/20 09:18:27;;;;;;;0.80;0.80;;;23.30;66.50;;;;;;5002915;28;20761;-74
2022/06/20 09:21:02;;;;;;;0.80;0.80;;;23.40;67.90;;;;;;5003967;28;20603;-74
2022/06/20 09:23:46;;;;;;;0.90;0.90;;;23.50;65.80;;;;;;5010982;28;20218;-73
2022/06/20 09:26:27;;;;;;;0.93;0.93;;;23.70;64.40;;;;;;5006253;28;20222;-74
2022/06/20 09:29:04;;;;;;;0.70;0.70;;;23.80;66.30;;;;;;5009377;28;20193;-76
2022/06/20 09:31:52;;;;;;;1.15;0.82;;;23.90;67.00;;;;;;5009915;28;20208;-74
2022/06/20 09:34:35;;;;;;;1.50;0.80;;;24.00;63.20;;;;;;5010227;28;20181;-74
2022/06/20 09:37:40;;;;;;;1.67;0.93;;;24.10;66.20;;;;;;5019658;28;20199;-74
2022/06/20 09:40:15;;;;;;;0.80;0.80;;;24.20;66.70;;;;;;5049935;28;20195;-74
2022/06/20 09:42:47;;;;;;;1.45;0.90;;;24.40;65.60;;;;;;5044311;28;20194;-74
2022/06/20 09:45:15;;;;;;;0.70;0.70;;;24.50;65.30;;;;;;5052241;28;20583;-74
2022/06/20 09:47:54;;;;;;;0.90;0.90;;;24.60;64.90;;;;;;5053518;28;20171;-73
2022/06/20 09:50:25;;;;;;;1.05;1.05;;;24.80;62.90;;;;;;5051560;28;20259;-73
2022/06/20 09:52:57;;;;;;;1.10;1.02;;;24.90;63.10;;;;;;5050528;28;20202;-73
2022/06/20 09:55:22;;;;;;;1.05;1.05;;;25.00;63.80;;;;;;5048576;28;20253;-74
2022/06/20 09:58:08;;;;;;;0.90;0.90;;;25.10;64.20;;;;;;5047326;28;20219;-74
2022/06/20 10:01:00;;;;;;;0.95;0.95;;;25.20;62.50;;;;;;5047479;28;20202;-74
2022/06/20 10:03:53;;;;;;;1.77;1.00;;;25.30;63.00;;;;;;5043827;28;20908;-74
2022/06/20 10:06:32;;;;;;;1.33;0.85;;;25.50;62.00;;;;;;5044501;28;20191;-77
2022/06/20 10:09:09;;;;;;;1.20;1.10;;;25.60;61.80;;;;;;5050325;28;20359;-74
2022/06/20 10:12:02;;;;;;;1.85;0.77;;;25.80;61.20;;;;;;5047254;28;20308;-75
2022/06/20 10:14:51;;;;;;;1.48;0.88;;;25.90;60.40;;;;;;5048925;28;20244;-76
2022/06/20 10:17:29;;;;;;;0.93;0.93;;;26.00;60.70;;;;;;5044543;28;20832;-75
2022/06/20 10:20:19;;;;;;;0.85;0.85;;;26.10;60.30;;;;;;5038495;28;20202;-76
2022/06/20 10:23:12;;;;;;;0.85;0.85;;;26.20;59.70;;;;;;5033382;28;20183;-76
2022/06/20 10:25:56;;;;;;;0.95;0.88;;;26.40;59.30;;;;;;5038755;28;20183;-76
2022/06/20 10:28:32;;;;;;;1.25;0.98;;;26.60;57.70;;;;;;5037854;28;20191;-76
2022/06/20 10:31:13;;;;;;;2.35;1.02;;;26.80;56.60;;;;;;5038408;28;20183;-77
2022/06/20 10:33:56;;;;;;;0.90;0.90;;;27.00;55.90;;;;;;5035962;28;20288;-77
2022/06/20 10:36:43;;;;;;;0.75;0.75;;;27.20;54.40;;;;;;5038578;28;20732;-77
2022/06/20 10:39:19;;;;;;;0.70;0.70;;;27.60;54.90;;;;;;5037292;28;20219;-77
2022/06/20 10:42:06;;;;;;;1.10;1.10;;;27.90;53.50;;;;;;5041740;28;20198;-77
2022/06/20 10:44:46;;;;;;;2.15;0.75;;;28.30;55.20;;;;;;5021755;28;20701;-77
2022/06/20 10:47:38;;;;;;;0.73;0.73;;;28.70;54.10;;;;;;5037765;28;20196;-76
2022/06/20 10:50:25;;;;;;;1.48;0.70;;;29.20;50.90;;;;;;5039563;28;20183;-76
2022/06/20 10:53:09;;;;;;;4.32;0.73;;;29.40;52.50;;;;;;5042969;28;20226;-76
2022/06/20 10:56:12;;;;;;;0.60;0.60;;;29.70;48.80;;;;;;5050235;28;20214;-76
2022/06/20 10:58:46;;;;;;;0.60;0.60;;;30.00;50.40;;;;;;5053925;28;20190;-76
2022/06/20 11:01:38;;;;;;;0.73;0.70;;;30.60;47.80;;;;;;5052504;28;20261;-76
2022/06/20 11:04:04;;;;;;;0.60;0.60;;;31.10;47.70;;;;;;5050121;28;20587;-76
2022/06/20 11:06:42;;;;;;;0.88;0.88;;;31.40;47.10;;;;;;5050274;28;20193;-76
2022/06/20 11:09:13;;;;;;;0.68;0.68;;;31.60;46.50;;;;;;5050291;28;20187;-77
2022/06/20 11:11:58;;;;;;;0.70;0.70;;;31.70;48.50;;;;;;5050306;28;20188;-77
2022/06/20 11:14:37;;;;;;;0.60;0.60;;;32.10;47.00;;;;;;5054726;28;20205;-77
2022/06/20 11:17:03;;;;;;;0.60;0.60;;;32.60;46.90;;;;;;5052968;28;20263;-78
2022/06/20 11:19:41;;;;;;;0.80;0.80;;;33.20;46.60;;;;;;5053372;28;20216;-76
2022/06/20 11:22:31;;;;;;;0.60;0.60;;;33.80;45.30;;;;;;5052109;28;20229;-75
2022/06/20 11:25:27;;;;;;;0.80;0.80;;;34.00;43.90;;;;;;5055541;28;20189;-75
2022/06/20 11:28:04;;;;;;;1.48;0.70;;;34.50;43.60;;;;;;5050212;28;20209;-75
2022/06/20 11:30:36;;;;;;;0.80;0.80;;;34.60;43.00;;;;;;5052535;28;20183;-77
2022/06/20 11:36:26;;;;;;;1.38;0.73;;;35.20;46.00;;;;;;5052168;28;20716;-76
2022/06/20 11:39:34;;;;;;;0.73;0.73;;;35.30;44.60;;;;;;5051382;28;20183;-76
2022/06/20 11:42:45;;;;;;;0.65;0.65;;;35.60;42.20;;;;;;5059055;28;20217;-74
2022/06/20 11:45:16;;;;;;;0.70;0.70;;;35.90;43.70;;;;;;5061546;28;20206;-74
2022/06/20 11:47:51;;;;;;;0.80;0.80;;;36.30;43.30;;;;;;5058163;28;20189;-74
2022/06/20 11:50:35;;;;;;;1.85;0.55;;;36.60;43.80;;;;;;5054363;28;20220;-74
2022/06/20 11:53:09;;;;;;;0.85;0.85;;;37.10;43.00;;;;;;5060998;28;20186;-74
2022/06/20 11:55:47;;;;;;;0.82;0.82;;;37.30;42.40;;;;;;5058401;28;20715;-74
2022/06/20 11:58:18;;;;;;;1.95;0.70;;;37.60;42.00;;;;;;5060525;28;20202;-74
2022/06/20 12:01:01;;;;;;;1.45;0.82;;;37.90;41.10;;;;;;5061449;28;20183;-74
2022/06/20 12:03:41;;;;;;;1.65;0.65;;;38.10;40.80;;;;;;5061319;28;20186;-74
2022/06/20 12:06:21;;;;;;;1.60;0.80;;;38.50;42.80;;;;;;5060571;28;20272;-74
2022/06/20 12:09:10;;;;;;;0.60;0.60;;;38.50;41.60;;;;;;5059100;28;20186;-74
2022/06/20 12:11:47;;;;;;;0.75;0.75;;;38.30;40.60;;;;;;5061042;28;20197;-74
2022/06/20 12:14:34;;;;;;;0.68;0.68;;;38.20;41.70;;;;;;5057465;28;20194;-74
2022/06/20 12:17:14;;;;;;;1.45;0.77;;;38.20;41.50;;;;;;5057174;28;20252;-74
2022/06/20 12:25:53;;;;;;;0.55;0.55;;;38.30;40.50;;;;;;5042955;28;20201;-74
2022/06/20 12:28:33;;;;;;;0.60;0.60;;;38.00;38.80;;;;;;5046817;28;20183;-74
2022/06/20 12:31:16;;;;;;;0.55;0.55;;;37.90;40.30;;;;;;5052831;28;20655;-73
2022/06/20 12:33:46;;;;;;;0.60;0.60;;;38.00;40.00;;;;;;5045255;28;20179;-74
2022/06/20 12:36:43;;;;;;;0.60;0.60;;;38.30;40.70;;;;;;5045341;28;20245;-74
2022/06/20 12:39:09;;;;;;;0.60;0.60;;;38.70;39.80;;;;;;5058144;28;20236;-74
2022/06/20 12:41:41;;;;;;;0.55;0.55;;;39.10;39.90;;;;;;5059563;28;20687;-75
2022/06/20 12:44:12;;;;;;;0.50;0.50;;;39.50;40.20;;;;;;5054366;28;20202;-74
2022/06/20 12:46:46;;;;;;;0.80;0.80;;;39.80;38.30;;;;;;5059749;28;20201;-74
2022/06/20 12:49:34;;;;;;;0.57;0.57;;;39.90;39.00;;;;;;5059845;28;20213;-74
2022/06/20 12:52:18;;;;;;;0.90;0.90;;;40.40;38.30;;;;;;5053677;28;20236;-74
2022/06/20 12:54:46;;;;;;;0.70;0.70;;;40.70;38.90;;;;;;5055615;28;20216;-74
2022/06/20 12:57:42;;;;;;;0.60;0.60;;;41.10;39.50;;;;;;5057989;28;20632;-74
2022/06/20 13:00:36;;;;;;;0.75;0.75;;;41.50;39.40;;;;;;5057759;28;20661;-74
2022/06/20 13:03:04;;;;;;;0.77;0.77;;;41.70;37.60;;;;;;5057800;28;20205;-74
2022/06/20 13:05:49;;;;;;;2.22;0.80;;;41.90;39.10;;;;;;5058446;28;20187;-74
2022/06/20 13:08:42;;;;;;;0.50;0.50;;;42.00;42.20;;;;;;5052235;28;20853;-74
2022/06/20 13:11:19;;;;;;;1.08;0.90;;;42.10;38.80;;;;;;5042092;28;20243;-74
2022/06/20 13:13:55;;;;;;;1.33;0.90;;;42.20;39.20;;;;;;5056289;28;20178;-74
2022/06/20 13:16:31;;;;;;;1.20;0.60;;;42.20;37.90;;;;;;5053488;28;20225;-74
2022/06/20 13:18:57;;;;;;;2.92;0.75;;;42.30;37.50;;;;;;5045876;28;20258;-75
2022/06/20 13:21:33;;;;;;;0.52;0.50;;;42.60;39.80;;;;;;5053113;28;20255;-74
2022/06/20 13:24:41;;;;;;;0.70;0.70;;;42.80;37.90;;;;;;5050612;28;20191;-74
2022/06/20 13:27:15;;;;;;;0.60;0.60;;;42.90;36.10;;;;;;5045795;28;20450;-74
2022/06/20 13:29:51;;;;;;;0.60;0.60;;;42.80;35.80;;;;;;5045059;28;20245;-74
2022/06/20 13:32:35;;;;;;;0.75;0.75;;;42.60;36.20;;;;;;5046540;28;20213;-75
2022/06/20 13:35:21;;;;;;;0.85;0.85;;;42.50;36.80;;;;;;5046980;28;20217;-74
2022/06/20 13:37:50;;;;;;;3.03;0.80;;;42.40;37.00;;;;;;5044289;28;20262;-75
2022/06/20 13:40:19;;;;;;;0.98;0.90;;;42.30;37.20;;;;;;5046672;28;20186;-77
2022/06/20 13:42:47;;;;;;;0.70;0.70;;;42.30;37.10;;;;;;5044866;28;20671;-75
2022/06/20 13:45:42;;;;;;;0.90;0.90;;;42.30;37.00;;;;;;5048897;28;20183;-74
2022/06/20 13:48:36;;;;;;;3.05;0.70;;;42.30;37.60;;;;;;5049019;28;20187;-74
2022/06/20 13:51:20;;;;;;;0.85;0.70;;;42.20;38.00;;;;;;5050340;28;20680;-75
2022/06/20 13:53:56;;;;;;;0.80;0.80;;;42.30;38.10;;;;;;5052569;28;20190;-75
2022/06/20 13:56:33;;;;;;;0.73;0.73;;;42.20;37.90;;;;;;5049682;28;20945;-76
2022/06/20 13:59:17;;;;;;;0.82;0.77;;;42.20;37.60;;;;;;5049370;28;20244;-76